الصفحة الرئيسية
METAR-TAF:

METAR-TAF

مطار :

برينديزي, إيطاليا

دائرة عرض: 40-39N, خط طول: 017-57E, ارتفاع: 15 متر

مراقبة الطقس الحالي

تاريخ ووقت الإصدار 41 دقيقة قبل الساعة 17:50UTC
ريح 14 عقدة من الشمال/الشمال الغربي
درجة الحرارة 10°درجة مئوية
الرطوبة 46%
ضغط 1013 hPa
الرؤية 10 كم أو أكثر
غيوم متفرقة على ارتفاع 3000 قدم

METAR: LIBR 011750Z 34014KT 9999 SCT030 10/M01 Q1013

زمن: 20:31 (18:31 UTC)

توقعات

تاريخ ووقت الإصدار 1ساعة و 31 دقيقة قبل الساعة 17:00UTC
التوقعات صالحة من01 الساعة 18 UTC إلى 02 الساعة 18 UTC
ريح 13 عقدة من الشمال
الرؤية 10 كم أو أكثر
غيوم قليلة على ارتفاع 3000 قدم

TAF: LIBR 011700Z 0118/0218 35013KT 9999 FEW030

أرصاد الطقس والتوقعات من أكثر من 4000 مطار (تقارير الطقس للمطار METAR والتنبؤ بالطقس بالمطارTAF).

المحطات المتاحة هي النقط الصفراء والحمراء على الخريطة.

حرك المؤشر فوق النقطة لمعرفة اسم المحطة.

ثم انقر لمعرفة أرصاد وتوقعات الطقس.

لتغيير الخارطة: اضغط على الأزرار الخضراء مع رمز الصليب الأسود للتكبير. على الزر الأخضر مع شرطة للتصغير، أو على الأسهم الخضراء للخرائط المجاورة.


METAR-TAF: